Pocola, Oklahoma
Current Conditions -  °F | °C
As of 12:53 PM on Sunday 23 Nov 2014 (Local Time) from KFSM Reporting Station
Overcast Overcast  
Wind Chill: 66°   Ceiling: 2600
Heat Index: 66°   Visibility: 10mi
Dew Point: 58°   Wind: 7mph
Humidity: 75%   Direction: 30°NNE
Pressure: 29.35"   Gusts: NA
Location:  35.23°N, 94.48°W
Report Text: KFSM 231853Z 03006KT 10SM BKN026 OVC034 19/14 A2935 RMK AO2 SLP935 T01890144
Loading
Personal Weather Stations






























Interactive Weather Map New forecast layout! Learn more

10-Day Weather Forecast

Advertisements
Track Severe Weather on mobile